MDBL weather

Public forecast

Using degrees Celsius for public forecast. Weather courtesy of forecast.io.

Closest aviation weather report (METAR) to Boca Chica Airport

Closest report is Las Américas International Airport, 4.5 nm (8.4 km) WSW. Retrieved 2020/08/10 08:00 UTC (58 minutes ago):

MDSD 100800Z 36004KT 9999 FEW016CB SCT018 26/24 Q1016 CB/SE

Closest aviation forecast (TAF) to Boca Chica Airport

Closest forecast is Las Américas International Airport, 4.5 nm (8.4 km) WSW. Retrieved 2020/08/10 06:03 UTC (3 hours ago):

TAF MDSD 100400Z 1006/1106 03004KT 9999 SCT018 PROB30 1006/1012 8000 -SH BKN016